createdAt,value
2023-02-24T00:02:01.141Z,97025.00
2023-02-24T00:04:32.657Z,97019.00
2023-02-24T00:07:01.164Z,97023.00
2023-02-24T00:09:33.330Z,97020.00
2023-02-24T00:12:05.425Z,97023.00
2023-02-24T00:14:41.902Z,97013.00
2023-02-24T00:17:12.504Z,97013.00
2023-02-24T00:19:41.111Z,97011.00
2023-02-24T00:22:10.430Z,97019.00
2023-02-24T00:24:40.098Z,97018.00
2023-02-24T00:27:11.101Z,97014.00
2023-02-24T00:29:41.739Z,97004.00
2023-02-24T00:32:12.653Z,97006.00
2023-02-24T00:34:42.028Z,96992.00
2023-02-24T00:37:10.459Z,96999.00
2023-02-24T00:39:41.516Z,96996.00
2023-02-24T00:42:12.406Z,96983.00
2023-02-24T00:44:44.929Z,96984.00
2023-02-24T00:47:16.200Z,96987.00
2023-02-24T00:49:45.125Z,96988.00
2023-02-24T00:52:16.488Z,96979.00
2023-02-24T00:54:47.780Z,96984.00
2023-02-24T00:57:18.179Z,96974.00
2023-02-24T00:59:47.523Z,96972.00
2023-02-24T01:02:16.826Z,96984.00
2023-02-24T01:04:46.574Z,96964.00
2023-02-24T01:07:15.881Z,96959.00
2023-02-24T01:09:44.385Z,96952.00
2023-02-24T01:12:32.709Z,96950.00
2023-02-24T01:15:03.004Z,96957.00
2023-02-24T01:17:31.270Z,96967.00
2023-02-24T01:20:00.855Z,96951.00
2023-02-24T01:22:29.210Z,96955.00
2023-02-24T01:24:57.366Z,96943.00
2023-02-24T01:27:26.930Z,96953.00
2023-02-24T01:29:55.090Z,96935.00
2023-02-24T01:32:24.367Z,96941.00
2023-02-24T01:34:54.278Z,96934.00
2023-02-24T01:37:23.952Z,96943.00
2023-02-24T01:39:52.456Z,96939.00
2023-02-24T01:42:23.421Z,96933.00
2023-02-24T01:45:14.613Z,96914.00
2023-02-24T01:47:46.795Z,96919.00
2023-02-24T01:50:17.965Z,96921.00
2023-02-24T01:52:50.860Z,96931.00
2023-02-24T01:55:25.337Z,96910.00
2023-02-24T01:57:55.280Z,96901.00
2023-02-24T02:00:38.326Z,96905.00
2023-02-24T02:03:19.465Z,96909.00
2023-02-24T02:05:49.027Z,96918.00
2023-02-24T02:08:21.843Z,96911.00
2023-02-24T02:10:53.478Z,96913.00
2023-02-24T02:13:22.034Z,96905.00
2023-02-24T02:16:05.383Z,96891.00
2023-02-24T02:18:47.996Z,96903.00
2023-02-24T02:22:05.406Z,96885.00
2023-02-24T02:24:52.592Z,96894.00
2023-02-24T02:28:20.750Z,96887.00
2023-02-24T02:31:39.368Z,96882.00
2023-02-24T02:34:31.451Z,96891.00
2023-02-24T02:37:09.194Z,96893.00
2023-02-24T02:39:52.540Z,96891.00
2023-02-24T02:42:30.125Z,96889.00
2023-02-24T02:45:09.841Z,96888.00
2023-02-24T02:47:50.517Z,96888.00
2023-02-24T02:50:27.003Z,96888.00
2023-02-24T02:53:00.629Z,96892.00
2023-02-24T02:55:39.023Z,96882.00
2023-02-24T02:58:14.709Z,96863.00
2023-02-24T03:00:58.640Z,96866.00
2023-02-24T03:03:30.809Z,96863.00
2023-02-24T03:06:07.474Z,96868.00
2023-02-24T03:08:40.585Z,96874.00
2023-02-24T03:11:16.118Z,96861.00
2023-02-24T03:13:49.644Z,96870.00
2023-02-24T03:16:20.719Z,96871.00
2023-02-24T03:18:56.600Z,96868.00
2023-02-24T03:21:34.082Z,96855.00
2023-02-24T03:24:05.667Z,96854.00
2023-02-24T03:26:44.188Z,96864.00
2023-02-24T03:29:23.807Z,96859.00
2023-02-24T03:31:59.396Z,96862.00
2023-02-24T03:34:40.930Z,96851.00
2023-02-24T03:37:10.972Z,96861.00
2023-02-24T03:39:39.958Z,96855.00
2023-02-24T03:42:21.201Z,96838.00
2023-02-24T03:44:50.705Z,96835.00
2023-02-24T03:47:20.418Z,96842.00
2023-02-24T03:49:50.368Z,96846.00
2023-02-24T03:52:40.202Z,96826.00
2023-02-24T03:55:26.710Z,96824.00
2023-02-24T03:58:14.328Z,96827.00
2023-02-24T04:00:56.768Z,96834.00
2023-02-24T04:03:35.752Z,96833.00
2023-02-24T04:06:28.215Z,96837.00
2023-02-24T04:09:13.130Z,96836.00
2023-02-24T04:11:59.050Z,96834.00
2023-02-24T04:14:36.938Z,96851.00
2023-02-24T04:17:19.277Z,96853.00
2023-02-24T04:19:55.471Z,96837.00
2023-02-24T04:22:27.482Z,96839.00
2023-02-24T04:25:02.846Z,96838.00
2023-02-24T04:27:31.742Z,96842.00
2023-02-24T04:30:14.494Z,96843.00
2023-02-24T04:32:44.200Z,96839.00
2023-02-24T04:35:16.984Z,96838.00
2023-02-24T04:37:50.436Z,96834.00
2023-02-24T04:40:22.907Z,96818.00
2023-02-24T04:42:52.890Z,96827.00
2023-02-24T04:45:23.865Z,96813.00
2023-02-24T04:47:56.103Z,96823.00
2023-02-24T04:50:26.488Z,96823.00
2023-02-24T04:52:57.744Z,96825.00
2023-02-24T04:55:32.905Z,96806.00
2023-02-24T04:58:02.989Z,96817.00
2023-02-24T05:00:35.512Z,96810.00
2023-02-24T05:03:06.504Z,96804.00
2023-02-24T05:05:35.429Z,96797.00
2023-02-24T05:08:07.305Z,96788.00
2023-02-24T05:10:40.973Z,96789.00
2023-02-24T05:13:12.182Z,96785.00
2023-02-24T05:15:43.157Z,96786.00
2023-02-24T05:18:17.136Z,96786.00
2023-02-24T05:21:07.495Z,96794.00
2023-02-24T05:23:39.331Z,96776.00
2023-02-24T05:26:11.775Z,96764.00
2023-02-24T05:28:42.029Z,96772.00
2023-02-24T05:31:14.911Z,96773.00
2023-02-24T05:33:44.895Z,96778.00
2023-02-24T05:36:17.287Z,96766.00
2023-02-24T05:38:47.676Z,96770.00
2023-02-24T05:41:20.139Z,96780.00
2023-02-24T05:43:53.145Z,96765.00
2023-02-24T05:46:28.046Z,96765.00
2023-02-24T05:48:57.850Z,96759.00
2023-02-24T05:51:26.710Z,96754.00
2023-02-24T05:53:56.073Z,96742.00
2023-02-24T05:56:27.237Z,96735.00
2023-02-24T05:59:01.953Z,96747.00
2023-02-24T06:01:31.385Z,96748.00
2023-02-24T06:04:05.907Z,96747.00
2023-02-24T06:06:39.221Z,96753.00
2023-02-24T06:09:10.719Z,96746.00
2023-02-24T06:11:42.236Z,96749.00
2023-02-24T06:14:12.147Z,96747.00
2023-02-24T06:16:43.413Z,96733.00
2023-02-24T06:19:13.539Z,96739.00
2023-02-24T06:21:43.777Z,96743.00
2023-02-24T06:24:15.209Z,96740.00
2023-02-24T06:26:45.728Z,96740.00
2023-02-24T06:29:15.733Z,96739.00
2023-02-24T06:31:44.660Z,96746.00
2023-02-24T06:34:14.869Z,96724.00
2023-02-24T06:36:43.591Z,96736.00
2023-02-24T06:39:14.456Z,96733.00
2023-02-24T06:41:44.036Z,96747.00
2023-02-24T06:44:12.288Z,96726.00
2023-02-24T06:46:41.243Z,96724.00
2023-02-24T06:49:09.923Z,96721.00
2023-02-24T06:51:38.999Z,96712.00
2023-02-24T06:54:07.505Z,96725.00
2023-02-24T06:56:38.749Z,96708.00
2023-02-24T06:59:11.843Z,96707.00
2023-02-24T07:01:45.104Z,96701.00
2023-02-24T07:04:20.843Z,96716.00
2023-02-24T07:06:52.503Z,96723.00
2023-02-24T07:09:24.004Z,96741.00
2023-02-24T07:11:56.963Z,96731.00
2023-02-24T07:14:30.562Z,96728.00
2023-02-24T07:17:00.093Z,96732.00
2023-02-24T07:19:32.300Z,96721.00
2023-02-24T07:22:03.707Z,96708.00
2023-02-24T07:24:36.430Z,96714.00
2023-02-24T07:27:07.820Z,96710.00
2023-02-24T07:29:38.635Z,96704.00
2023-02-24T07:32:09.815Z,96713.00
2023-02-24T07:34:40.080Z,96709.00
2023-02-24T07:37:09.827Z,96704.00
2023-02-24T07:39:39.660Z,96703.00
2023-02-24T07:42:10.531Z,96702.00
2023-02-24T07:44:49.016Z,96698.00
2023-02-24T07:47:17.493Z,96701.00
2023-02-24T07:49:46.072Z,96712.00
2023-02-24T07:52:16.039Z,96688.00
2023-02-24T07:54:44.258Z,96695.00
2023-02-24T07:57:13.734Z,96696.00
2023-02-24T07:59:46.714Z,96691.00
2023-02-24T08:02:16.810Z,96682.00
2023-02-24T08:04:50.080Z,96685.00
2023-02-24T08:07:24.312Z,96675.00
2023-02-24T08:10:14.003Z,96685.00
2023-02-24T08:12:47.489Z,96677.00
2023-02-24T08:15:23.784Z,96672.00
2023-02-24T08:17:59.371Z,96691.00
2023-02-24T08:20:29.868Z,96681.00
2023-02-24T08:22:58.473Z,96681.00
2023-02-24T08:25:36.457Z,96680.00
2023-02-24T08:28:11.198Z,96680.00
2023-02-24T08:30:45.567Z,96681.00
2023-02-24T08:33:21.911Z,96679.00
2023-02-24T08:36:00.823Z,96670.00
2023-02-24T08:38:41.796Z,96660.00
2023-02-24T08:41:19.931Z,96663.00
2023-02-24T08:43:50.284Z,96648.00
2023-02-24T08:46:26.141Z,96646.00
2023-02-24T08:49:00.837Z,96641.00
2023-02-24T08:51:34.468Z,96650.00
2023-02-24T08:54:10.771Z,96642.00
2023-02-24T08:56:43.423Z,96636.00
2023-02-24T08:59:29.118Z,96641.00
2023-02-24T09:02:13.139Z,96645.00
2023-02-24T09:04:44.802Z,96642.00
2023-02-24T09:07:19.275Z,96634.00
2023-02-24T09:09:48.194Z,96621.00
2023-02-24T09:12:24.603Z,96629.00
2023-02-24T09:14:57.036Z,96630.00
2023-02-24T09:17:49.715Z,96630.00
2023-02-24T09:20:52.028Z,96626.00
2023-02-24T09:23:29.881Z,96619.00
2023-02-24T09:25:58.453Z,96631.00
2023-02-24T09:28:32.734Z,96639.00
2023-02-24T09:31:04.798Z,96620.00
2023-02-24T09:33:39.446Z,96616.00
2023-02-24T09:36:12.911Z,96629.00
2023-02-24T09:39:02.616Z,96618.00
2023-02-24T09:41:53.783Z,96636.00
2023-02-24T09:44:33.164Z,96610.00
2023-02-24T09:47:15.818Z,96606.00
2023-02-24T09:49:56.197Z,96589.00
2023-02-24T09:52:39.687Z,96599.00
2023-02-24T09:55:25.139Z,96600.00
2023-02-24T09:58:19.719Z,96597.00
2023-02-24T10:00:59.657Z,96595.00
2023-02-24T10:03:43.008Z,96592.00
2023-02-24T10:06:21.386Z,96587.00
2023-02-24T10:08:58.148Z,96585.00
2023-02-24T10:11:33.825Z,96566.00
2023-02-24T10:14:06.720Z,96575.00
2023-02-24T10:16:43.090Z,96569.00
2023-02-24T10:19:27.263Z,96569.00
2023-02-24T10:22:04.201Z,96560.00
2023-02-24T10:24:47.277Z,96549.00
2023-02-24T10:27:23.993Z,96538.00
2023-02-24T10:30:10.848Z,96524.00
2023-02-24T10:32:50.416Z,96510.00
2023-02-24T10:35:25.850Z,96531.00
2023-02-24T10:38:00.910Z,96539.00
2023-02-24T10:40:45.014Z,96535.00
2023-02-24T10:43:19.431Z,96523.00
2023-02-24T10:45:49.103Z,96530.00
2023-02-24T10:48:40.328Z,96530.00
2023-02-24T10:51:20.000Z,96523.00
2023-02-24T10:54:09.938Z,96512.00
2023-02-24T10:56:55.215Z,96517.00
2023-02-24T10:59:48.461Z,96501.00
2023-02-24T11:02:30.008Z,96507.00
2023-02-24T11:05:25.094Z,96502.00
2023-02-24T11:08:11.484Z,96479.00
2023-02-24T11:10:53.210Z,96475.00
2023-02-24T11:13:42.746Z,96469.00
2023-02-24T11:16:29.635Z,96467.00
2023-02-24T11:18:59.278Z,96464.00
2023-02-24T11:21:29.065Z,96459.00
2023-02-24T11:24:02.831Z,96442.00
2023-02-24T11:26:38.781Z,96447.00
2023-02-24T11:29:34.860Z,96434.00
2023-02-24T11:32:33.484Z,96433.00
2023-02-24T11:35:12.620Z,96438.00
2023-02-24T11:37:44.786Z,96429.00
2023-02-24T11:40:19.769Z,96420.00
2023-02-24T11:42:54.425Z,96419.00
2023-02-24T11:45:34.656Z,96401.00
2023-02-24T11:48:14.841Z,96409.00
2023-02-24T11:50:50.255Z,96395.00
2023-02-24T11:53:35.333Z,96390.00
2023-02-24T11:56:09.297Z,96392.00
2023-02-24T11:58:47.434Z,96389.00
2023-02-24T12:01:26.897Z,96368.00
2023-02-24T12:04:10.860Z,96372.00
2023-02-24T12:06:48.993Z,96374.00
2023-02-24T12:09:23.724Z,96364.00
2023-02-24T12:12:01.172Z,96355.00
2023-02-24T12:14:40.492Z,96360.00
2023-02-24T12:17:25.239Z,96350.00
2023-02-24T12:20:05.511Z,96347.00
2023-02-24T12:22:46.011Z,96338.00
2023-02-24T12:25:16.707Z,96337.00
2023-02-24T12:28:11.793Z,96331.00
2023-02-24T12:30:57.860Z,96330.00
2023-02-24T12:33:49.201Z,96325.00
2023-02-24T12:36:46.870Z,96314.00
2023-02-24T12:39:21.539Z,96320.00
2023-02-24T12:42:07.444Z,96319.00
2023-02-24T12:44:49.966Z,96313.00
2023-02-24T12:47:27.873Z,96313.00
2023-02-24T12:50:16.687Z,96310.00
2023-02-24T12:53:05.094Z,96310.00
2023-02-24T12:55:48.474Z,96306.00
2023-02-24T12:58:25.298Z,96296.00
2023-02-24T13:01:08.425Z,96288.00
2023-02-24T13:04:08.863Z,96271.00
2023-02-24T13:06:54.193Z,96266.00
2023-02-24T13:09:33.421Z,96277.00
2023-02-24T13:12:14.229Z,96274.00
2023-02-24T13:14:44.329Z,96265.00
2023-02-24T13:17:24.371Z,96269.00
2023-02-24T13:19:55.700Z,96255.00
2023-02-24T13:22:30.504Z,96268.00
2023-02-24T13:25:19.826Z,96253.00
2023-02-24T13:27:59.501Z,96245.00
2023-02-24T13:30:35.323Z,96244.00
2023-02-24T13:33:21.047Z,96242.00
2023-02-24T13:35:52.444Z,96234.00
2023-02-24T13:38:36.927Z,96220.00
2023-02-24T13:41:22.478Z,96215.00
2023-02-24T13:43:57.882Z,96200.00
2023-02-24T13:46:30.824Z,96202.00
2023-02-24T13:49:25.315Z,96207.00
2023-02-24T13:52:05.188Z,96198.00
2023-02-24T13:55:32.612Z,96189.00
2023-02-24T13:58:30.004Z,96187.00
2023-02-24T14:01:14.439Z,96179.00
2023-02-24T14:03:46.406Z,96173.00
2023-02-24T14:06:25.976Z,96160.00
2023-02-24T14:08:58.901Z,96164.00
2023-02-24T14:11:30.997Z,96162.00
2023-02-24T14:14:01.192Z,96153.00
2023-02-24T14:16:39.657Z,96149.00
2023-02-24T14:19:17.037Z,96146.00
2023-02-24T14:21:52.507Z,96150.00
2023-02-24T14:24:22.269Z,96142.00
2023-02-24T14:26:54.236Z,96141.00
2023-02-24T14:29:27.524Z,96147.00
2023-02-24T14:31:59.182Z,96143.00
2023-02-24T14:34:30.845Z,96144.00
2023-02-24T14:37:03.634Z,96141.00
2023-02-24T14:39:34.192Z,96130.00
2023-02-24T14:42:15.774Z,96124.00
2023-02-24T14:44:48.609Z,96118.00
2023-02-24T14:47:20.993Z,96124.00
2023-02-24T14:49:59.306Z,96119.00
2023-02-24T14:52:36.411Z,96116.00
2023-02-24T14:55:13.567Z,96108.00
2023-02-24T14:57:46.109Z,96110.00
2023-02-24T15:00:24.029Z,96098.00
2023-02-24T15:03:04.312Z,96098.00
2023-02-24T15:05:33.154Z,96096.00
2023-02-24T15:08:03.870Z,96103.00
2023-02-24T15:10:33.145Z,96101.00
2023-02-24T15:13:13.395Z,96093.00
2023-02-24T15:15:43.086Z,96087.00
2023-02-24T15:18:25.214Z,96083.00
2023-02-24T15:21:02.383Z,96078.00
2023-02-24T15:23:34.090Z,96078.00
2023-02-24T15:26:04.434Z,96074.00
2023-02-24T15:28:35.817Z,96068.00
2023-02-24T15:31:11.606Z,96052.00
2023-02-24T15:33:43.270Z,96069.00
2023-02-24T15:36:19.379Z,96064.00
2023-02-24T15:38:52.539Z,96063.00
2023-02-24T15:41:20.822Z,96077.00
2023-02-24T15:43:52.921Z,96056.00
2023-02-24T15:46:31.469Z,96054.00
2023-02-24T15:49:03.113Z,96046.00
2023-02-24T15:51:38.143Z,96041.00
2023-02-24T15:54:12.486Z,96050.00
2023-02-24T15:56:42.959Z,96043.00
2023-02-24T15:59:15.407Z,96032.00
2023-02-24T16:01:45.641Z,96040.00
2023-02-24T16:04:14.248Z,96034.00
2023-02-24T16:06:54.612Z,96042.00
2023-02-24T16:09:33.478Z,96040.00
2023-02-24T16:12:04.231Z,96026.00
2023-02-24T16:14:33.964Z,96050.00
2023-02-24T16:17:08.777Z,96033.00
2023-02-24T16:19:38.009Z,96022.00
2023-02-24T16:22:06.169Z,96031.00
2023-02-24T16:24:35.088Z,96020.00
2023-02-24T16:27:03.652Z,96026.00
2023-02-24T16:29:31.832Z,96017.00
2023-02-24T16:32:00.266Z,96023.00
2023-02-24T16:34:30.041Z,96016.00
2023-02-24T16:36:58.215Z,96023.00
2023-02-24T16:39:26.353Z,96014.00
2023-02-24T16:41:54.496Z,96000.00
2023-02-24T16:44:23.393Z,96007.00
2023-02-24T16:46:52.631Z,96013.00
2023-02-24T16:49:22.322Z,96014.00
2023-02-24T16:51:51.882Z,96002.00
2023-02-24T16:54:21.883Z,95997.00
2023-02-24T16:56:50.614Z,96014.00
2023-02-24T16:59:18.760Z,96002.00
2023-02-24T17:01:47.094Z,96000.00
2023-02-24T17:04:15.623Z,96019.00
2023-02-24T17:06:44.034Z,96014.00
2023-02-24T17:09:15.702Z,96013.00
2023-02-24T17:11:47.166Z,96002.00
2023-02-24T17:14:19.039Z,96006.00
2023-02-24T17:16:48.431Z,96009.00
2023-02-24T17:19:17.725Z,96005.00
2023-02-24T17:21:46.785Z,96011.00
2023-02-24T17:24:19.473Z,96000.00
2023-02-24T17:26:48.490Z,96004.00
2023-02-24T17:29:16.906Z,96009.00
2023-02-24T17:31:45.272Z,96003.00
2023-02-24T17:34:13.630Z,95994.00
2023-02-24T17:36:42.003Z,95999.00
2023-02-24T17:39:10.247Z,95996.00
2023-02-24T17:41:39.792Z,95992.00
2023-02-24T17:44:07.938Z,95996.00
2023-02-24T17:46:36.151Z,95996.00
2023-02-24T17:49:05.363Z,95997.00
2023-02-24T17:51:33.869Z,96004.00
2023-02-24T17:54:02.007Z,95993.00
2023-02-24T17:56:30.359Z,95993.00
2023-02-24T17:59:00.961Z,95997.00
2023-02-24T18:01:30.055Z,96002.00
2023-02-24T18:03:58.291Z,95995.00
2023-02-24T18:06:26.961Z,95994.00
2023-02-24T18:08:55.183Z,95994.00
2023-02-24T18:11:23.370Z,95986.00
2023-02-24T18:13:55.036Z,95992.00
2023-02-24T18:16:25.199Z,95994.00
2023-02-24T18:18:53.716Z,95991.00
2023-02-24T18:21:22.018Z,95994.00
2023-02-24T18:23:50.483Z,95997.00
2023-02-24T18:26:18.840Z,95990.00
2023-02-24T18:28:47.228Z,95994.00
2023-02-24T18:31:18.279Z,95999.00
2023-02-24T18:33:50.380Z,95992.00
2023-02-24T18:36:19.576Z,95995.00
2023-02-24T18:38:48.298Z,96000.00
2023-02-24T18:41:20.075Z,95987.00
2023-02-24T18:43:50.983Z,95998.00
2023-02-24T18:46:21.239Z,95992.00
2023-02-24T18:48:51.476Z,95996.00
2023-02-24T18:51:22.492Z,95998.00
2023-02-24T18:53:52.810Z,95993.00
2023-02-24T18:56:24.418Z,96008.00
2023-02-24T18:58:57.146Z,96005.00
2023-02-24T19:01:29.331Z,95996.00
2023-02-24T19:03:59.890Z,95999.00
2023-02-24T19:06:32.002Z,95994.00
2023-02-24T19:09:03.616Z,96011.00
2023-02-24T19:11:31.907Z,96007.00
2023-02-24T19:14:00.940Z,95989.00
2023-02-24T19:16:29.906Z,96000.00
2023-02-24T19:19:00.759Z,95991.00
2023-02-24T19:21:31.353Z,95996.00
2023-02-24T19:24:01.905Z,96004.00
2023-02-24T19:26:30.731Z,96000.00
2023-02-24T19:28:59.987Z,96007.00
2023-02-24T19:31:31.514Z,96002.00
2023-02-24T19:34:07.669Z,96002.00
2023-02-24T19:36:37.538Z,95995.00
2023-02-24T19:39:10.004Z,95992.00
2023-02-24T19:41:38.444Z,95992.00
2023-02-24T19:44:06.771Z,96010.00
2023-02-24T19:46:36.228Z,96002.00
2023-02-24T19:49:06.490Z,96005.00
2023-02-24T19:51:35.009Z,96023.00
2023-02-24T19:54:06.104Z,96017.00
2023-02-24T19:56:37.733Z,96018.00
2023-02-24T19:59:09.006Z,96017.00
2023-02-24T20:01:37.538Z,96034.00
2023-02-24T20:04:08.599Z,96041.00
2023-02-24T20:06:40.995Z,96044.00
2023-02-24T20:09:12.563Z,96048.00
2023-02-24T20:11:41.214Z,96051.00
2023-02-24T20:14:13.371Z,96054.00
2023-02-24T20:16:43.402Z,96067.00
2023-02-24T20:19:15.778Z,96071.00
2023-02-24T20:21:44.248Z,96083.00
2023-02-24T20:24:17.793Z,96078.00
2023-02-24T20:26:49.590Z,96068.00
2023-02-24T20:29:20.700Z,96071.00
2023-02-24T20:31:49.447Z,96066.00
2023-02-24T20:34:19.051Z,96065.00
2023-02-24T20:36:47.339Z,96068.00
2023-02-24T20:39:15.536Z,96065.00
2023-02-24T20:41:44.450Z,96076.00
2023-02-24T20:44:13.105Z,96075.00
2023-02-24T20:46:41.377Z,96084.00
2023-02-24T20:49:14.556Z,96094.00
2023-02-24T20:51:45.094Z,96088.00
2023-02-24T20:54:14.885Z,96098.00
2023-02-24T20:56:45.550Z,96088.00
2023-02-24T20:59:16.956Z,96090.00
2023-02-24T21:01:47.744Z,96092.00
2023-02-24T21:04:18.934Z,96097.00
2023-02-24T21:06:51.199Z,96106.00
2023-02-24T21:09:19.514Z,96094.00
2023-02-24T21:11:47.700Z,96084.00
2023-02-24T21:14:17.559Z,96093.00
2023-02-24T21:16:46.988Z,96086.00
2023-02-24T21:19:15.433Z,96082.00
2023-02-24T21:21:43.581Z,96081.00
2023-02-24T21:24:13.263Z,96092.00
2023-02-24T21:26:41.536Z,96094.00
2023-02-24T21:29:09.856Z,96073.00
2023-02-24T21:31:38.265Z,96090.00
2023-02-24T21:34:06.611Z,96085.00
2023-02-24T21:36:34.928Z,96069.00
2023-02-24T21:39:03.231Z,96072.00
2023-02-24T21:41:35.428Z,96076.00
2023-02-24T21:44:03.892Z,96072.00
2023-02-24T21:46:32.218Z,96076.00
2023-02-24T21:49:00.900Z,96078.00
2023-02-24T21:51:29.658Z,96067.00
2023-02-24T21:53:58.816Z,96078.00
2023-02-24T21:56:29.506Z,96054.00
2023-02-24T21:59:02.141Z,96053.00
2023-02-24T22:01:33.792Z,96067.00
2023-02-24T22:04:04.633Z,96060.00
2023-02-24T22:06:35.218Z,96062.00
2023-02-24T22:09:06.675Z,96064.00
2023-02-24T22:11:39.307Z,96070.00
2023-02-24T22:14:11.577Z,96074.00
2023-02-24T22:16:41.299Z,96066.00
2023-02-24T22:19:10.130Z,96060.00
2023-02-24T22:21:39.502Z,96061.00
2023-02-24T22:24:08.611Z,96064.00
2023-02-24T22:26:37.072Z,96064.00
2023-02-24T22:29:05.887Z,96056.00
2023-02-24T22:31:38.109Z,96054.00
2023-02-24T22:34:08.725Z,96058.00
2023-02-24T22:36:38.466Z,96057.00
2023-02-24T22:39:09.231Z,96063.00
2023-02-24T22:41:38.481Z,96059.00
2023-02-24T22:44:07.768Z,96075.00
2023-02-24T22:46:39.612Z,96058.00
2023-02-24T22:49:08.380Z,96063.00
2023-02-24T22:51:37.098Z,96071.00
2023-02-24T22:54:06.114Z,96074.00
2023-02-24T22:56:34.617Z,96051.00
2023-02-24T22:59:02.809Z,96065.00
2023-02-24T23:01:34.008Z,96057.00
2023-02-24T23:04:07.278Z,96050.00
2023-02-24T23:06:37.175Z,96062.00
2023-02-24T23:09:07.216Z,96055.00
2023-02-24T23:11:39.242Z,96067.00
2023-02-24T23:14:13.674Z,96067.00
2023-02-24T23:16:46.459Z,96065.00
2023-02-24T23:19:18.750Z,96045.00
2023-02-24T23:21:49.680Z,96065.00
2023-02-24T23:24:20.030Z,96064.00
2023-02-24T23:26:53.744Z,96061.00
2023-02-24T23:29:24.608Z,96069.00
2023-02-24T23:31:53.451Z,96067.00
2023-02-24T23:34:23.095Z,96070.00
2023-02-24T23:36:51.400Z,96061.00
2023-02-24T23:39:23.701Z,96051.00
2023-02-24T23:41:57.497Z,96073.00
2023-02-24T23:44:26.277Z,96056.00
2023-02-24T23:46:54.692Z,96068.00
2023-02-24T23:49:24.627Z,96080.00
2023-02-24T23:51:53.315Z,96082.00
2023-02-24T23:54:21.551Z,96071.00
2023-02-24T23:56:50.275Z,96058.00
2023-02-24T23:59:18.453Z,96064.00
